Merimbula, New South Wales

5:03 PM AEST on September 21, 2014 (GMT +1000)
Merimbula | Change Station
CLOSE
Current Station
Airport
Location: Merimbula Airport, NSW,
Elevation: 7 ft
Nearby Weather Stations

Elev 7 ft 36.91 °S, 149.90 °E | Updated 1 hour ago

Clear
Clear
61 °F
Feels Like 61 °F
N
7
Wind Variable Wind from NE

Today
High -- | Low -- °F
--% Chance of Precip.
Yesterday
High -- | Low -- °F
Precip. -- in
5:52 AM 5:55 PM
Waning Crescent, 8% visible
Pressure 30.36 in
Visibility 6.2 miles
Clouds
Dew Point 46 °F
Humidity 59%
Rainfall 0.00 in
Snow Depth Not available.
UV Not available.
Pollen Not available.
Air Quality Not available.
Flu Activity Not available.
METAR YMER 210600Z AUTO 05006KT 9999 // NCD 16/08 Q1028

More Conditions Fewer Conditions

Pressure 30.36 in
Visibility 6.2 miles
Clouds
Dew Point 46 °F
Humidity 59%
Rainfall 0.00 in
Snow Depth Not available.
UV Not available.
Pollen Not available.
Air Quality Not available.
Flu Activity Not available.
METAR YMER 210600Z AUTO 05006KT 9999 // NCD 16/08 Q1028

More Conditions Fewer Conditions

10-Day Weather Forecast

Almanac

Astronomy

Sep. 21, 2014 Rise Set
Actual Time 5:52 AM AEST 5:55 PM AEST
Civil Twilight 5:26 AM AEST 6:21 PM AEST
Nautical Twilight 4:56 AM AEST 6:51 PM AEST
Astronomical Twilight 4:25 AM AEST 7:22 PM AEST
Moon 3:55 AM AEST 3:13 PM AEST
Length of Visible Light 12h 55m
Length of Day
12h 03m
Tomorrow will be 2m 20s longer.
Waning Crescent, 8% of the Moon is Illuminated
Today
Waning Crescent
Sep 24
New
Oct 1
First Quarter
Oct 8
Full
Oct 15
Last Quarter

Yesterday's Extremes

Country Highs Country Lows

Community

WunderPhotos

Upload Photos

1,755,101 photos uploaded!

Nearby

Snow Depth

Not available.

Earthquake Activity

City Distance Mag. Time & Date
No recent earthquake activity has been reported nearby.
Minimum magnitude displayed is 2.5.

Coastal Water Temperatures

Place Temperature
No Stations Reporting

Nearby Weather Stations